sensor_id;sensor_type;location;lat;lon;timestamp;P1;durP1;ratioP1;P2;durP2;ratioP2
5995;SDS011;3026;53.612;7.278;2023-01-10T00:00:56;7.47;;;1.80;;
5995;SDS011;3026;53.612;7.278;2023-01-10T00:03:23;8.03;;;1.67;;
5995;SDS011;3026;53.612;7.278;2023-01-10T00:05:49;8.03;;;1.43;;
5995;SDS011;3026;53.612;7.278;2023-01-10T00:08:16;5.63;;;1.53;;
5995;SDS011;3026;53.612;7.278;2023-01-10T00:10:45;11.10;;;2.23;;
5995;SDS011;3026;53.612;7.278;2023-01-10T00:13:15;6.33;;;1.67;;
5995;SDS011;3026;53.612;7.278;2023-01-10T00:15:47;9.73;;;1.90;;
5995;SDS011;3026;53.612;7.278;2023-01-10T00:18:15;8.00;;;2.00;;
5995;SDS011;3026;53.612;7.278;2023-01-10T00:20:42;11.77;;;2.07;;
5995;SDS011;3026;53.612;7.278;2023-01-10T00:23:10;12.87;;;2.40;;
5995;SDS011;3026;53.612;7.278;2023-01-10T00:25:37;6.27;;;2.20;;
5995;SDS011;3026;53.612;7.278;2023-01-10T00:28:05;9.03;;;2.37;;
5995;SDS011;3026;53.612;7.278;2023-01-10T00:30:41;9.50;;;1.63;;
5995;SDS011;3026;53.612;7.278;2023-01-10T00:33:08;8.60;;;2.07;;
5995;SDS011;3026;53.612;7.278;2023-01-10T00:35:41;10.10;;;3.30;;
5995;SDS011;3026;53.612;7.278;2023-01-10T00:38:08;9.80;;;1.77;;
5995;SDS011;3026;53.612;7.278;2023-01-10T00:40:35;11.57;;;2.53;;
5995;SDS011;3026;53.612;7.278;2023-01-10T00:43:02;9.53;;;1.93;;
5995;SDS011;3026;53.612;7.278;2023-01-10T00:45:48;9.47;;;2.23;;
5995;SDS011;3026;53.612;7.278;2023-01-10T00:48:15;8.97;;;2.00;;
5995;SDS011;3026;53.612;7.278;2023-01-10T00:50:42;11.00;;;2.50;;
5995;SDS011;3026;53.612;7.278;2023-01-10T00:53:10;10.23;;;2.20;;
5995;SDS011;3026;53.612;7.278;2023-01-10T00:55:37;11.10;;;2.07;;
5995;SDS011;3026;53.612;7.278;2023-01-10T00:58:04;9.83;;;2.43;;
5995;SDS011;3026;53.612;7.278;2023-01-10T01:00:32;13.43;;;2.43;;
5995;SDS011;3026;53.612;7.278;2023-01-10T01:03:01;14.90;;;2.37;;
5995;SDS011;3026;53.612;7.278;2023-01-10T01:05:28;17.90;;;2.50;;
5995;SDS011;3026;53.612;7.278;2023-01-10T01:07:55;16.03;;;3.10;;
5995;SDS011;3026;53.612;7.278;2023-01-10T01:10:22;15.07;;;3.03;;
5995;SDS011;3026;53.612;7.278;2023-01-10T01:12:52;19.50;;;3.37;;
5995;SDS011;3026;53.612;7.278;2023-01-10T01:15:19;9.77;;;2.50;;
5995;SDS011;3026;53.612;7.278;2023-01-10T01:17:47;17.43;;;3.27;;
5995;SDS011;3026;53.612;7.278;2023-01-10T01:20:15;16.33;;;2.93;;
5995;SDS011;3026;53.612;7.278;2023-01-10T01:22:44;11.00;;;2.30;;
5995;SDS011;3026;53.612;7.278;2023-01-10T01:25:11;10.53;;;2.43;;
5995;SDS011;3026;53.612;7.278;2023-01-10T01:27:39;20.13;;;2.97;;
5995;SDS011;3026;53.612;7.278;2023-01-10T01:30:06;11.60;;;2.97;;
5995;SDS011;3026;53.612;7.278;2023-01-10T01:32:34;12.60;;;2.60;;
5995;SDS011;3026;53.612;7.278;2023-01-10T01:35:01;13.77;;;3.03;;
5995;SDS011;3026;53.612;7.278;2023-01-10T01:37:30;12.87;;;2.80;;
5995;SDS011;3026;53.612;7.278;2023-01-10T01:39:57;14.57;;;3.13;;
5995;SDS011;3026;53.612;7.278;2023-01-10T01:42:25;14.23;;;3.03;;
5995;SDS011;3026;53.612;7.278;2023-01-10T01:47:59;14.27;;;2.40;;
5995;SDS011;3026;53.612;7.278;2023-01-10T01:50:32;12.67;;;2.73;;
5995;SDS011;3026;53.612;7.278;2023-01-10T01:53:04;18.07;;;3.00;;
5995;SDS011;3026;53.612;7.278;2023-01-10T01:55:36;12.50;;;3.27;;
5995;SDS011;3026;53.612;7.278;2023-01-10T01:58:05;13.53;;;2.03;;
5995;SDS011;3026;53.612;7.278;2023-01-10T02:00:38;17.87;;;2.43;;
5995;SDS011;3026;53.612;7.278;2023-01-10T02:03:05;11.60;;;3.13;;
5995;SDS011;3026;53.612;7.278;2023-01-10T02:05:33;15.80;;;2.80;;
5995;SDS011;3026;53.612;7.278;2023-01-10T02:08:04;10.83;;;2.20;;
5995;SDS011;3026;53.612;7.278;2023-01-10T02:10:33;12.40;;;2.50;;
5995;SDS011;3026;53.612;7.278;2023-01-10T02:13:07;12.03;;;2.53;;
5995;SDS011;3026;53.612;7.278;2023-01-10T02:15:36;7.67;;;2.43;;
5995;SDS011;3026;53.612;7.278;2023-01-10T02:18:03;6.73;;;2.43;;
5995;SDS011;3026;53.612;7.278;2023-01-10T02:20:33;6.37;;;2.27;;
5995;SDS011;3026;53.612;7.278;2023-01-10T02:23:15;17.73;;;2.40;;
5995;SDS011;3026;53.612;7.278;2023-01-10T02:26:26;13.53;;;3.30;;
5995;SDS011;3026;53.612;7.278;2023-01-10T02:29:15;13.57;;;2.33;;
5995;SDS011;3026;53.612;7.278;2023-01-10T02:32:08;12.50;;;2.40;;
5995;SDS011;3026;53.612;7.278;2023-01-10T02:34:49;13.50;;;2.90;;
5995;SDS011;3026;53.612;7.278;2023-01-10T02:37:28;11.63;;;2.30;;
5995;SDS011;3026;53.612;7.278;2023-01-10T02:40:07;12.67;;;2.73;;
5995;SDS011;3026;53.612;7.278;2023-01-10T02:42:41;12.67;;;2.40;;
5995;SDS011;3026;53.612;7.278;2023-01-10T02:45:13;9.87;;;2.77;;
5995;SDS011;3026;53.612;7.278;2023-01-10T02:47:48;12.73;;;2.53;;
5995;SDS011;3026;53.612;7.278;2023-01-10T02:50:22;10.00;;;2.60;;
5995;SDS011;3026;53.612;7.278;2023-01-10T02:52:54;10.53;;;2.60;;
5995;SDS011;3026;53.612;7.278;2023-01-10T02:55:25;10.10;;;2.63;;
5995;SDS011;3026;53.612;7.278;2023-01-10T02:58:01;13.13;;;2.37;;
5995;SDS011;3026;53.612;7.278;2023-01-10T03:00:39;14.30;;;3.17;;
5995;SDS011;3026;53.612;7.278;2023-01-10T03:03:13;14.07;;;3.03;;
5995;SDS011;3026;53.612;7.278;2023-01-10T03:06:01;12.27;;;2.50;;
5995;SDS011;3026;53.612;7.278;2023-01-10T03:08:38;10.13;;;3.13;;
5995;SDS011;3026;53.612;7.278;2023-01-10T03:11:14;13.40;;;2.67;;
5995;SDS011;3026;53.612;7.278;2023-01-10T03:13:42;16.87;;;3.47;;
5995;SDS011;3026;53.612;7.278;2023-01-10T03:16:16;9.83;;;2.53;;
5995;SDS011;3026;53.612;7.278;2023-01-10T03:18:47;14.20;;;2.83;;
5995;SDS011;3026;53.612;7.278;2023-01-10T03:21:18;16.47;;;3.77;;
5995;SDS011;3026;53.612;7.278;2023-01-10T03:23:47;12.27;;;2.83;;
5995;SDS011;3026;53.612;7.278;2023-01-10T03:26:16;11.70;;;2.77;;
5995;SDS011;3026;53.612;7.278;2023-01-10T03:28:53;10.43;;;3.13;;
5995;SDS011;3026;53.612;7.278;2023-01-10T03:31:27;9.17;;;2.67;;
5995;SDS011;3026;53.612;7.278;2023-01-10T03:33:58;16.00;;;4.00;;
5995;SDS011;3026;53.612;7.278;2023-01-10T03:36:27;16.67;;;2.60;;
5995;SDS011;3026;53.612;7.278;2023-01-10T03:39:00;8.27;;;2.43;;
5995;SDS011;3026;53.612;7.278;2023-01-10T03:41:34;8.07;;;2.57;;
5995;SDS011;3026;53.612;7.278;2023-01-10T03:44:08;11.03;;;2.43;;
5995;SDS011;3026;53.612;7.278;2023-01-10T03:46:59;11.67;;;2.40;;
5995;SDS011;3026;53.612;7.278;2023-01-10T03:49:36;16.17;;;3.17;;
5995;SDS011;3026;53.612;7.278;2023-01-10T03:52:05;13.80;;;2.63;;
5995;SDS011;3026;53.612;7.278;2023-01-10T03:54:34;12.17;;;3.20;;
5995;SDS011;3026;53.612;7.278;2023-01-10T03:57:01;8.90;;;2.53;;
5995;SDS011;3026;53.612;7.278;2023-01-10T03:59:28;16.00;;;2.67;;
5995;SDS011;3026;53.612;7.278;2023-01-10T04:01:55;12.50;;;2.43;;
5995;SDS011;3026;53.612;7.278;2023-01-10T04:04:22;12.47;;;3.07;;
5995;SDS011;3026;53.612;7.278;2023-01-10T04:06:50;15.97;;;2.60;;
5995;SDS011;3026;53.612;7.278;2023-01-10T04:09:17;13.77;;;2.97;;
5995;SDS011;3026;53.612;7.278;2023-01-10T04:11:44;13.30;;;2.77;;
5995;SDS011;3026;53.612;7.278;2023-01-10T04:14:11;12.93;;;2.70;;
5995;SDS011;3026;53.612;7.278;2023-01-10T04:16:38;12.50;;;2.20;;
5995;SDS011;3026;53.612;7.278;2023-01-10T04:19:05;13.60;;;2.57;;
5995;SDS011;3026;53.612;7.278;2023-01-10T04:21:32;11.93;;;2.43;;
5995;SDS011;3026;53.612;7.278;2023-01-10T04:24:00;13.03;;;2.70;;
5995;SDS011;3026;53.612;7.278;2023-01-10T04:26:27;15.17;;;2.87;;
5995;SDS011;3026;53.612;7.278;2023-01-10T04:28:54;14.20;;;2.70;;
5995;SDS011;3026;53.612;7.278;2023-01-10T04:31:21;8.10;;;2.10;;
5995;SDS011;3026;53.612;7.278;2023-01-10T04:33:48;11.43;;;2.63;;
5995;SDS011;3026;53.612;7.278;2023-01-10T04:36:15;14.83;;;2.80;;
5995;SDS011;3026;53.612;7.278;2023-01-10T04:38:51;11.63;;;2.77;;
5995;SDS011;3026;53.612;7.278;2023-01-10T04:41:20;8.23;;;2.80;;
5995;SDS011;3026;53.612;7.278;2023-01-10T04:43:47;9.50;;;2.60;;
5995;SDS011;3026;53.612;7.278;2023-01-10T04:46:14;14.03;;;2.30;;
5995;SDS011;3026;53.612;7.278;2023-01-10T04:48:41;9.50;;;2.03;;
5995;SDS011;3026;53.612;7.278;2023-01-10T04:51:08;10.60;;;2.37;;
5995;SDS011;3026;53.612;7.278;2023-01-10T04:53:35;12.90;;;3.23;;
5995;SDS011;3026;53.612;7.278;2023-01-10T04:56:02;13.80;;;2.33;;
5995;SDS011;3026;53.612;7.278;2023-01-10T04:58:32;9.20;;;2.53;;
5995;SDS011;3026;53.612;7.278;2023-01-10T05:01:05;13.33;;;2.73;;
5995;SDS011;3026;53.612;7.278;2023-01-10T05:03:33;12.97;;;3.03;;
5995;SDS011;3026;53.612;7.278;2023-01-10T05:06:00;8.33;;;2.13;;
5995;SDS011;3026;53.612;7.278;2023-01-10T05:08:28;15.27;;;3.17;;
5995;SDS011;3026;53.612;7.278;2023-01-10T05:10:55;10.97;;;3.13;;
5995;SDS011;3026;53.612;7.278;2023-01-10T05:13:22;13.10;;;2.50;;
5995;SDS011;3026;53.612;7.278;2023-01-10T05:15:53;13.03;;;2.73;;
5995;SDS011;3026;53.612;7.278;2023-01-10T05:18:22;10.17;;;2.23;;
5995;SDS011;3026;53.612;7.278;2023-01-10T05:20:49;14.77;;;2.70;;
5995;SDS011;3026;53.612;7.278;2023-01-10T05:23:16;11.57;;;2.80;;
5995;SDS011;3026;53.612;7.278;2023-01-10T05:25:43;9.87;;;2.57;;
5995;SDS011;3026;53.612;7.278;2023-01-10T05:28:10;7.73;;;1.93;;
5995;SDS011;3026;53.612;7.278;2023-01-10T05:30:37;8.73;;;2.53;;
5995;SDS011;3026;53.612;7.278;2023-01-10T05:33:05;10.10;;;2.33;;
5995;SDS011;3026;53.612;7.278;2023-01-10T05:35:33;15.00;;;2.50;;
5995;SDS011;3026;53.612;7.278;2023-01-10T05:38:00;11.13;;;2.50;;
5995;SDS011;3026;53.612;7.278;2023-01-10T05:40:27;12.03;;;2.17;;
5995;SDS011;3026;53.612;7.278;2023-01-10T05:42:54;7.07;;;1.90;;
5995;SDS011;3026;53.612;7.278;2023-01-10T05:45:21;10.60;;;2.20;;
5995;SDS011;3026;53.612;7.278;2023-01-10T05:47:48;7.13;;;1.90;;
5995;SDS011;3026;53.612;7.278;2023-01-10T05:50:16;9.53;;;1.90;;
5995;SDS011;3026;53.612;7.278;2023-01-10T05:52:43;16.37;;;3.03;;
5995;SDS011;3026;53.612;7.278;2023-01-10T05:55:10;10.50;;;3.27;;
5995;SDS011;3026;53.612;7.278;2023-01-10T05:57:37;9.37;;;2.53;;
5995;SDS011;3026;53.612;7.278;2023-01-10T06:00:05;13.37;;;2.63;;
5995;SDS011;3026;53.612;7.278;2023-01-10T06:02:33;7.57;;;2.30;;
5995;SDS011;3026;53.612;7.278;2023-01-10T06:05:00;12.07;;;2.53;;
5995;SDS011;3026;53.612;7.278;2023-01-10T06:07:29;8.93;;;2.50;;
5995;SDS011;3026;53.612;7.278;2023-01-10T06:09:56;8.27;;;2.80;;
5995;SDS011;3026;53.612;7.278;2023-01-10T06:12:23;9.37;;;2.67;;
5995;SDS011;3026;53.612;7.278;2023-01-10T06:14:50;11.10;;;2.60;;
5995;SDS011;3026;53.612;7.278;2023-01-10T06:17:17;12.47;;;3.13;;
5995;SDS011;3026;53.612;7.278;2023-01-10T06:19:44;11.50;;;2.30;;
5995;SDS011;3026;53.612;7.278;2023-01-10T06:22:11;13.27;;;3.00;;
5995;SDS011;3026;53.612;7.278;2023-01-10T06:24:39;9.87;;;2.57;;
5995;SDS011;3026;53.612;7.278;2023-01-10T06:27:06;11.53;;;3.23;;
5995;SDS011;3026;53.612;7.278;2023-01-10T06:29:33;12.37;;;2.60;;
5995;SDS011;3026;53.612;7.278;2023-01-10T06:32:00;12.77;;;3.43;;
5995;SDS011;3026;53.612;7.278;2023-01-10T06:34:27;15.50;;;2.90;;
5995;SDS011;3026;53.612;7.278;2023-01-10T06:36:54;12.60;;;2.90;;
5995;SDS011;3026;53.612;7.278;2023-01-10T06:39:21;15.70;;;3.17;;
5995;SDS011;3026;53.612;7.278;2023-01-10T06:41:50;14.60;;;2.93;;
5995;SDS011;3026;53.612;7.278;2023-01-10T06:44:17;12.53;;;3.23;;
5995;SDS011;3026;53.612;7.278;2023-01-10T06:46:43;11.70;;;2.70;;
5995;SDS011;3026;53.612;7.278;2023-01-10T06:49:10;9.83;;;2.60;;
5995;SDS011;3026;53.612;7.278;2023-01-10T06:51:37;7.73;;;2.20;;
5995;SDS011;3026;53.612;7.278;2023-01-10T06:54:04;15.27;;;4.13;;
5995;SDS011;3026;53.612;7.278;2023-01-10T06:56:31;8.70;;;2.83;;
5995;SDS011;3026;53.612;7.278;2023-01-10T06:58:59;13.20;;;2.87;;
5995;SDS011;3026;53.612;7.278;2023-01-10T07:01:26;11.30;;;2.63;;
5995;SDS011;3026;53.612;7.278;2023-01-10T07:03:53;9.00;;;2.43;;
5995;SDS011;3026;53.612;7.278;2023-01-10T07:06:20;10.83;;;2.80;;
5995;SDS011;3026;53.612;7.278;2023-01-10T07:08:47;13.43;;;3.53;;
5995;SDS011;3026;53.612;7.278;2023-01-10T07:11:13;9.27;;;2.73;;
5995;SDS011;3026;53.612;7.278;2023-01-10T07:13:41;6.60;;;2.63;;
5995;SDS011;3026;53.612;7.278;2023-01-10T07:16:10;12.80;;;2.87;;
5995;SDS011;3026;53.612;7.278;2023-01-10T07:18:39;11.37;;;2.83;;
5995;SDS011;3026;53.612;7.278;2023-01-10T07:21:07;9.40;;;2.87;;
5995;SDS011;3026;53.612;7.278;2023-01-10T07:23:35;5.87;;;2.20;;
5995;SDS011;3026;53.612;7.278;2023-01-10T07:26:04;16.23;;;3.93;;
5995;SDS011;3026;53.612;7.278;2023-01-10T07:28:32;12.07;;;2.70;;
5995;SDS011;3026;53.612;7.278;2023-01-10T07:31:01;8.80;;;2.23;;
5995;SDS011;3026;53.612;7.278;2023-01-10T07:33:31;13.57;;;2.80;;
5995;SDS011;3026;53.612;7.278;2023-01-10T07:35:58;11.10;;;3.03;;
5995;SDS011;3026;53.612;7.278;2023-01-10T07:38:26;9.90;;;2.50;;
5995;SDS011;3026;53.612;7.278;2023-01-10T07:40:53;11.70;;;2.30;;
5995;SDS011;3026;53.612;7.278;2023-01-10T07:43:20;10.33;;;2.60;;
5995;SDS011;3026;53.612;7.278;2023-01-10T07:45:47;9.53;;;2.33;;
5995;SDS011;3026;53.612;7.278;2023-01-10T07:48:14;9.67;;;2.47;;
5995;SDS011;3026;53.612;7.278;2023-01-10T07:50:42;11.73;;;2.70;;
5995;SDS011;3026;53.612;7.278;2023-01-10T07:53:09;8.50;;;2.03;;
5995;SDS011;3026;53.612;7.278;2023-01-10T07:55:36;15.93;;;2.63;;
5995;SDS011;3026;53.612;7.278;2023-01-10T07:58:04;10.47;;;3.07;;
5995;SDS011;3026;53.612;7.278;2023-01-10T08:00:33;8.43;;;2.80;;
5995;SDS011;3026;53.612;7.278;2023-01-10T08:03:00;8.77;;;2.13;;
5995;SDS011;3026;53.612;7.278;2023-01-10T08:05:27;9.17;;;2.20;;
5995;SDS011;3026;53.612;7.278;2023-01-10T08:07:55;8.87;;;2.33;;
5995;SDS011;3026;53.612;7.278;2023-01-10T08:10:24;10.77;;;2.30;;
5995;SDS011;3026;53.612;7.278;2023-01-10T08:12:52;11.03;;;2.73;;
5995;SDS011;3026;53.612;7.278;2023-01-10T08:15:19;10.17;;;2.23;;
5995;SDS011;3026;53.612;7.278;2023-01-10T08:17:46;10.50;;;2.43;;
5995;SDS011;3026;53.612;7.278;2023-01-10T08:20:13;7.43;;;2.60;;
5995;SDS011;3026;53.612;7.278;2023-01-10T08:22:40;9.47;;;3.00;;
5995;SDS011;3026;53.612;7.278;2023-01-10T08:25:10;7.30;;;2.73;;
5995;SDS011;3026;53.612;7.278;2023-01-10T08:27:37;6.93;;;2.30;;
5995;SDS011;3026;53.612;7.278;2023-01-10T08:30:04;9.03;;;2.20;;
5995;SDS011;3026;53.612;7.278;2023-01-10T08:32:33;10.43;;;2.50;;
5995;SDS011;3026;53.612;7.278;2023-01-10T08:34:59;8.53;;;2.40;;
5995;SDS011;3026;53.612;7.278;2023-01-10T08:37:27;9.03;;;2.67;;
5995;SDS011;3026;53.612;7.278;2023-01-10T08:39:54;13.47;;;3.30;;
5995;SDS011;3026;53.612;7.278;2023-01-10T08:42:22;13.13;;;3.00;;
5995;SDS011;3026;53.612;7.278;2023-01-10T08:44:49;11.67;;;2.50;;
5995;SDS011;3026;53.612;7.278;2023-01-10T08:47:16;12.37;;;2.67;;
5995;SDS011;3026;53.612;7.278;2023-01-10T08:49:43;8.27;;;2.30;;
5995;SDS011;3026;53.612;7.278;2023-01-10T08:52:11;7.97;;;1.93;;
5995;SDS011;3026;53.612;7.278;2023-01-10T08:54:38;12.83;;;3.10;;
5995;SDS011;3026;53.612;7.278;2023-01-10T08:57:05;12.67;;;3.10;;
5995;SDS011;3026;53.612;7.278;2023-01-10T08:59:33;10.47;;;2.97;;
5995;SDS011;3026;53.612;7.278;2023-01-10T09:02:00;13.50;;;3.00;;
5995;SDS011;3026;53.612;7.278;2023-01-10T09:04:29;13.87;;;3.33;;
5995;SDS011;3026;53.612;7.278;2023-01-10T09:06:56;20.60;;;2.90;;
5995;SDS011;3026;53.612;7.278;2023-01-10T09:09:23;20.43;;;3.07;;
5995;SDS011;3026;53.612;7.278;2023-01-10T09:11:50;15.07;;;3.90;;
5995;SDS011;3026;53.612;7.278;2023-01-10T09:14:17;17.47;;;3.30;;
5995;SDS011;3026;53.612;7.278;2023-01-10T09:16:45;9.27;;;3.13;;
5995;SDS011;3026;53.612;7.278;2023-01-10T09:19:15;18.23;;;3.73;;
5995;SDS011;3026;53.612;7.278;2023-01-10T09:21:42;20.30;;;3.20;;
5995;SDS011;3026;53.612;7.278;2023-01-10T09:24:09;14.77;;;3.20;;
5995;SDS011;3026;53.612;7.278;2023-01-10T09:26:36;17.63;;;3.17;;
5995;SDS011;3026;53.612;7.278;2023-01-10T09:29:03;17.67;;;3.47;;
5995;SDS011;3026;53.612;7.278;2023-01-10T09:31:30;11.60;;;3.97;;
5995;SDS011;3026;53.612;7.278;2023-01-10T09:33:58;15.43;;;3.30;;
5995;SDS011;3026;53.612;7.278;2023-01-10T09:36:25;15.43;;;3.70;;
5995;SDS011;3026;53.612;7.278;2023-01-10T09:38:52;15.77;;;3.77;;
5995;SDS011;3026;53.612;7.278;2023-01-10T09:41:26;14.87;;;3.60;;
5995;SDS011;3026;53.612;7.278;2023-01-10T09:44:09;13.10;;;3.67;;
5995;SDS011;3026;53.612;7.278;2023-01-10T09:46:46;16.63;;;3.53;;
5995;SDS011;3026;53.612;7.278;2023-01-10T09:49:21;17.60;;;3.97;;
5995;SDS011;3026;53.612;7.278;2023-01-10T09:51:56;19.77;;;4.87;;
5995;SDS011;3026;53.612;7.278;2023-01-10T09:54:25;14.93;;;3.60;;
5995;SDS011;3026;53.612;7.278;2023-01-10T09:56:54;17.20;;;4.97;;
5995;SDS011;3026;53.612;7.278;2023-01-10T09:59:24;15.43;;;4.23;;
5995;SDS011;3026;53.612;7.278;2023-01-10T10:01:58;16.60;;;4.00;;
5995;SDS011;3026;53.612;7.278;2023-01-10T10:04:32;19.63;;;5.40;;
5995;SDS011;3026;53.612;7.278;2023-01-10T10:07:01;17.07;;;4.63;;
5995;SDS011;3026;53.612;7.278;2023-01-10T10:09:29;22.63;;;5.17;;
5995;SDS011;3026;53.612;7.278;2023-01-10T10:12:02;18.03;;;3.73;;
5995;SDS011;3026;53.612;7.278;2023-01-10T10:14:46;17.90;;;4.23;;
5995;SDS011;3026;53.612;7.278;2023-01-10T10:17:29;12.10;;;3.70;;
5995;SDS011;3026;53.612;7.278;2023-01-10T10:20:05;15.03;;;4.37;;
5995;SDS011;3026;53.612;7.278;2023-01-10T10:22:47;18.77;;;4.23;;
5995;SDS011;3026;53.612;7.278;2023-01-10T10:25:28;13.87;;;4.10;;
5995;SDS011;3026;53.612;7.278;2023-01-10T10:28:18;23.47;;;3.93;;
5995;SDS011;3026;53.612;7.278;2023-01-10T10:31:06;15.87;;;4.30;;
5995;SDS011;3026;53.612;7.278;2023-01-10T10:33:47;13.40;;;3.90;;
5995;SDS011;3026;53.612;7.278;2023-01-10T10:36:28;22.33;;;4.37;;
5995;SDS011;3026;53.612;7.278;2023-01-10T10:39:03;21.37;;;4.87;;
5995;SDS011;3026;53.612;7.278;2023-01-10T10:41:36;10.17;;;3.83;;
5995;SDS011;3026;53.612;7.278;2023-01-10T10:44:08;18.40;;;4.53;;
5995;SDS011;3026;53.612;7.278;2023-01-10T10:46:52;19.17;;;5.03;;
5995;SDS011;3026;53.612;7.278;2023-01-10T10:49:21;12.20;;;4.43;;
5995;SDS011;3026;53.612;7.278;2023-01-10T10:52:02;13.87;;;3.57;;
5995;SDS011;3026;53.612;7.278;2023-01-10T10:54:37;17.77;;;3.90;;
5995;SDS011;3026;53.612;7.278;2023-01-10T10:57:04;13.63;;;4.80;;
5995;SDS011;3026;53.612;7.278;2023-01-10T10:59:31;17.67;;;3.53;;
5995;SDS011;3026;53.612;7.278;2023-01-10T11:01:58;16.33;;;3.80;;
5995;SDS011;3026;53.612;7.278;2023-01-10T11:04:25;14.50;;;3.53;;
5995;SDS011;3026;53.612;7.278;2023-01-10T11:06:53;14.67;;;3.67;;
5995;SDS011;3026;53.612;7.278;2023-01-10T11:09:23;14.70;;;3.10;;
5995;SDS011;3026;53.612;7.278;2023-01-10T11:11:53;14.80;;;3.90;;
5995;SDS011;3026;53.612;7.278;2023-01-10T11:17:19;16.50;;;3.47;;
5995;SDS011;3026;53.612;7.278;2023-01-10T11:19:55;13.37;;;2.80;;
5995;SDS011;3026;53.612;7.278;2023-01-10T11:22:26;15.23;;;3.60;;
5995;SDS011;3026;53.612;7.278;2023-01-10T11:24:58;17.50;;;2.57;;
5995;SDS011;3026;53.612;7.278;2023-01-10T11:27:27;12.07;;;3.57;;
5995;SDS011;3026;53.612;7.278;2023-01-10T11:29:56;13.67;;;3.20;;
5995;SDS011;3026;53.612;7.278;2023-01-10T11:32:31;10.83;;;2.80;;
5995;SDS011;3026;53.612;7.278;2023-01-10T11:35:01;12.33;;;3.10;;
5995;SDS011;3026;53.612;7.278;2023-01-10T11:37:33;14.43;;;2.97;;
5995;SDS011;3026;53.612;7.278;2023-01-10T11:40:17;10.93;;;3.60;;
5995;SDS011;3026;53.612;7.278;2023-01-10T11:42:48;11.67;;;3.23;;
5995;SDS011;3026;53.612;7.278;2023-01-10T11:45:26;15.10;;;4.30;;
5995;SDS011;3026;53.612;7.278;2023-01-10T11:47:57;12.53;;;3.17;;
5995;SDS011;3026;53.612;7.278;2023-01-10T11:50:29;10.60;;;3.40;;
5995;SDS011;3026;53.612;7.278;2023-01-10T11:52:59;15.60;;;3.93;;
5995;SDS011;3026;53.612;7.278;2023-01-10T11:55:28;11.03;;;3.53;;
5995;SDS011;3026;53.612;7.278;2023-01-10T11:57:59;18.33;;;3.73;;
5995;SDS011;3026;53.612;7.278;2023-01-10T12:00:33;16.07;;;3.37;;
5995;SDS011;3026;53.612;7.278;2023-01-10T12:03:20;18.50;;;3.67;;
5995;SDS011;3026;53.612;7.278;2023-01-10T12:05:51;14.07;;;4.10;;
5995;SDS011;3026;53.612;7.278;2023-01-10T12:08:28;14.87;;;3.93;;
5995;SDS011;3026;53.612;7.278;2023-01-10T12:10:58;12.07;;;3.63;;
5995;SDS011;3026;53.612;7.278;2023-01-10T12:13:28;11.60;;;3.93;;
5995;SDS011;3026;53.612;7.278;2023-01-10T12:16:18;14.47;;;3.90;;
5995;SDS011;3026;53.612;7.278;2023-01-10T12:18:47;13.83;;;4.23;;
5995;SDS011;3026;53.612;7.278;2023-01-10T12:21:17;18.90;;;4.43;;
5995;SDS011;3026;53.612;7.278;2023-01-10T12:23:50;12.50;;;3.87;;
5995;SDS011;3026;53.612;7.278;2023-01-10T12:26:21;11.07;;;3.73;;
5995;SDS011;3026;53.612;7.278;2023-01-10T12:28:49;16.27;;;3.60;;
5995;SDS011;3026;53.612;7.278;2023-01-10T12:31:21;13.80;;;3.80;;
5995;SDS011;3026;53.612;7.278;2023-01-10T12:33:50;14.53;;;4.00;;
5995;SDS011;3026;53.612;7.278;2023-01-10T12:36:28;18.47;;;4.03;;
5995;SDS011;3026;53.612;7.278;2023-01-10T12:39:05;14.97;;;4.53;;
5995;SDS011;3026;53.612;7.278;2023-01-10T12:41:54;16.53;;;3.10;;
5995;SDS011;3026;53.612;7.278;2023-01-10T12:44:52;16.37;;;3.33;;
5995;SDS011;3026;53.612;7.278;2023-01-10T12:47:27;15.40;;;3.90;;
5995;SDS011;3026;53.612;7.278;2023-01-10T12:49:59;15.47;;;3.60;;
5995;SDS011;3026;53.612;7.278;2023-01-10T12:52:32;15.37;;;4.77;;
5995;SDS011;3026;53.612;7.278;2023-01-10T12:55:10;14.13;;;4.03;;
5995;SDS011;3026;53.612;7.278;2023-01-10T12:57:40;27.43;;;4.53;;
5995;SDS011;3026;53.612;7.278;2023-01-10T13:00:14;17.87;;;4.17;;
5995;SDS011;3026;53.612;7.278;2023-01-10T13:02:46;17.97;;;5.47;;
5995;SDS011;3026;53.612;7.278;2023-01-10T13:05:18;21.60;;;5.63;;
5995;SDS011;3026;53.612;7.278;2023-01-10T13:07:46;22.07;;;5.30;;
5995;SDS011;3026;53.612;7.278;2023-01-10T13:10:16;21.07;;;6.40;;
5995;SDS011;3026;53.612;7.278;2023-01-10T13:12:49;17.87;;;5.17;;
5995;SDS011;3026;53.612;7.278;2023-01-10T13:15:21;19.47;;;6.30;;
5995;SDS011;3026;53.612;7.278;2023-01-10T13:17:53;21.57;;;5.87;;
5995;SDS011;3026;53.612;7.278;2023-01-10T13:23:13;20.63;;;6.37;;
5995;SDS011;3026;53.612;7.278;2023-01-10T13:26:04;24.90;;;6.73;;
5995;SDS011;3026;53.612;7.278;2023-01-10T13:28:35;17.13;;;5.57;;
5995;SDS011;3026;53.612;7.278;2023-01-10T13:31:04;22.33;;;6.77;;
5995;SDS011;3026;53.612;7.278;2023-01-10T13:33:36;19.23;;;5.97;;
5995;SDS011;3026;53.612;7.278;2023-01-10T13:36:16;21.53;;;6.57;;
5995;SDS011;3026;53.612;7.278;2023-01-10T13:38:47;20.27;;;6.60;;
5995;SDS011;3026;53.612;7.278;2023-01-10T13:41:17;17.87;;;7.17;;
5995;SDS011;3026;53.612;7.278;2023-01-10T13:44:04;28.10;;;7.60;;
5995;SDS011;3026;53.612;7.278;2023-01-10T13:46:35;16.33;;;6.00;;
5995;SDS011;3026;53.612;7.278;2023-01-10T13:55:21;20.83;;;6.67;;
5995;SDS011;3026;53.612;7.278;2023-01-10T13:57:55;24.43;;;7.60;;
5995;SDS011;3026;53.612;7.278;2023-01-10T14:00:39;15.80;;;5.90;;
5995;SDS011;3026;53.612;7.278;2023-01-10T14:03:43;21.33;;;6.33;;
5995;SDS011;3026;53.612;7.278;2023-01-10T14:06:15;19.80;;;6.20;;
5995;SDS011;3026;53.612;7.278;2023-01-10T14:08:49;18.43;;;5.50;;
5995;SDS011;3026;53.612;7.278;2023-01-10T14:11:18;21.07;;;4.73;;
5995;SDS011;3026;53.612;7.278;2023-01-10T14:13:48;17.70;;;6.40;;
5995;SDS011;3026;53.612;7.278;2023-01-10T14:16:36;20.33;;;5.80;;
5995;SDS011;3026;53.612;7.278;2023-01-10T14:19:06;22.27;;;5.97;;
5995;SDS011;3026;53.612;7.278;2023-01-10T14:21:50;14.90;;;4.80;;
5995;SDS011;3026;53.612;7.278;2023-01-10T14:24:22;18.03;;;4.93;;
5995;SDS011;3026;53.612;7.278;2023-01-10T14:26:51;14.60;;;4.00;;
5995;SDS011;3026;53.612;7.278;2023-01-10T14:29:20;22.83;;;4.63;;
5995;SDS011;3026;53.612;7.278;2023-01-10T14:31:49;22.53;;;5.97;;
5995;SDS011;3026;53.612;7.278;2023-01-10T14:34:20;19.53;;;4.57;;
5995;SDS011;3026;53.612;7.278;2023-01-10T14:36:50;16.50;;;4.10;;
5995;SDS011;3026;53.612;7.278;2023-01-10T14:39:22;17.63;;;5.23;;
5995;SDS011;3026;53.612;7.278;2023-01-10T14:41:51;16.33;;;5.20;;
5995;SDS011;3026;53.612;7.278;2023-01-10T14:44:21;18.27;;;4.93;;
5995;SDS011;3026;53.612;7.278;2023-01-10T14:46:54;18.63;;;5.33;;
5995;SDS011;3026;53.612;7.278;2023-01-10T14:49:24;15.93;;;4.70;;
5995;SDS011;3026;53.612;7.278;2023-01-10T14:51:53;18.30;;;3.90;;
5995;SDS011;3026;53.612;7.278;2023-01-10T14:54:25;14.87;;;4.57;;
5995;SDS011;3026;53.612;7.278;2023-01-10T14:56:54;16.13;;;4.00;;
5995;SDS011;3026;53.612;7.278;2023-01-10T14:59:22;16.47;;;3.57;;
5995;SDS011;3026;53.612;7.278;2023-01-10T15:01:51;18.47;;;5.03;;
5995;SDS011;3026;53.612;7.278;2023-01-10T15:04:22;19.03;;;4.30;;
5995;SDS011;3026;53.612;7.278;2023-01-10T15:06:54;15.87;;;4.33;;
5995;SDS011;3026;53.612;7.278;2023-01-10T15:09:26;16.13;;;4.17;;
5995;SDS011;3026;53.612;7.278;2023-01-10T15:11:54;13.37;;;4.07;;
5995;SDS011;3026;53.612;7.278;2023-01-10T15:14:24;21.20;;;4.67;;
5995;SDS011;3026;53.612;7.278;2023-01-10T15:16:55;18.67;;;4.07;;
5995;SDS011;3026;53.612;7.278;2023-01-10T15:19:27;21.20;;;4.27;;
5995;SDS011;3026;53.612;7.278;2023-01-10T15:21:56;26.33;;;4.93;;
5995;SDS011;3026;53.612;7.278;2023-01-10T15:24:26;18.77;;;4.33;;
5995;SDS011;3026;53.612;7.278;2023-01-10T15:26:56;18.80;;;4.37;;
5995;SDS011;3026;53.612;7.278;2023-01-10T15:29:25;22.73;;;5.80;;
5995;SDS011;3026;53.612;7.278;2023-01-10T15:31:55;16.23;;;4.83;;
5995;SDS011;3026;53.612;7.278;2023-01-10T15:34:32;14.90;;;3.87;;
5995;SDS011;3026;53.612;7.278;2023-01-10T15:37:00;20.97;;;5.17;;
5995;SDS011;3026;53.612;7.278;2023-01-10T15:39:29;21.60;;;5.27;;
5995;SDS011;3026;53.612;7.278;2023-01-10T15:41:59;16.60;;;5.57;;